Saint-Charles-Sur-Richelieu, Canada
Current Conditions -  °F | °C
As of 10:00 PM on Tuesday 25 Nov 2014 (Local Time) from CYHU Reporting Station
Clear Clear  
Wind Chill: 27°   Ceiling: Unl
Heat Index: 37°   Visibility: 9mi
Dew Point: 25°   Wind: 21mph
Humidity: 60%   Direction: 250°WSW
Pressure: 30"   Gusts: 32mph
Location:  45.68°N, 73.18°W
Report Text: CYHU 260300Z AUTO 25018G28KT 9SM CLR 03/M04 A3000 RMK PRESRR SLP159
Loading
Personal Weather Stations






























Interactive Weather Map New forecast layout! Learn more

10-Day Weather Forecast

Advertisements
Track Severe Weather on mobile